Time;durP1;ratioP1;P1;durP2;ratioP2;P2;SDS_P1;SDS_P2;PMS_P1;PMS_P2;Temp;Humidity;BMP_temperature;BMP_pressure;BME280_temperature;BME280_humidity;BME280_pressure;Samples;Min_cycle;Max_cycle;Signal;HPM_P1;HPM_P2
2023/09/22 00:00:11;;;;;;;7.72;1.20;;;14.20;82.50;;;;;;5076151;28;20020;-80
2023/09/22 00:02:39;;;;;;;7.85;1.98;;;14.20;82.20;;;;;;5076032;28;20017;-80
2023/09/22 00:05:07;;;;;;;6.90;1.25;;;14.20;82.20;;;;;;5075576;28;20047;-83
2023/09/22 00:07:34;;;;;;;4.82;1.38;;;14.20;81.90;;;;;;5075878;28;20025;-83
2023/09/22 00:10:03;;;;;;;6.85;1.52;;;14.30;82.50;;;;;;5075882;28;20028;-80
2023/09/22 00:12:31;;;;;;;9.70;1.45;;;14.40;82.50;;;;;;5075757;28;20035;-83
2023/09/22 00:14:59;;;;;;;6.88;1.10;;;14.50;82.60;;;;;;5075695;28;20021;-80
2023/09/22 00:17:27;;;;;;;8.77;1.30;;;14.50;82.30;;;;;;5075797;28;20048;-80
2023/09/22 00:19:55;;;;;;;4.97;1.02;;;14.50;81.80;;;;;;5075583;28;20025;-79
2023/09/22 00:22:22;;;;;;;7.22;1.70;;;14.50;82.00;;;;;;5075771;28;20024;-82
2023/09/22 00:24:50;;;;;;;8.18;1.30;;;14.50;82.20;;;;;;5075388;28;20079;-83
2023/09/22 00:27:18;;;;;;;9.00;1.90;;;14.50;82.30;;;;;;5075289;28;20103;-84
2023/09/22 00:29:45;;;;;;;11.40;1.85;;;14.40;82.60;;;;;;5075544;28;20021;-81
2023/09/22 00:32:12;;;;;;;9.85;1.98;;;14.50;82.40;;;;;;5075555;28;20309;-83
2023/09/22 00:34:40;;;;;;;6.35;1.75;;;14.40;82.50;;;;;;5075419;28;20475;-83
2023/09/22 00:37:07;;;;;;;7.72;1.60;;;14.50;82.30;;;;;;5075150;28;20055;-83
2023/09/22 00:39:34;;;;;;;8.65;1.25;;;14.60;82.60;;;;;;5075522;28;20149;-79
2023/09/22 00:42:09;;;;;;;8.82;1.42;;;14.80;82.30;;;;;;5075156;28;20487;-80
2023/09/22 00:44:37;;;;;;;4.93;1.13;;;15.00;81.80;;;;;;5075397;28;20032;-82
2023/09/22 00:47:14;;;;;;;11.82;1.25;;;15.20;81.80;;;;;;5075222;28;20081;-81
2023/09/22 00:49:43;;;;;;;6.63;1.50;;;15.40;80.40;;;;;;5075062;28;20032;-81
2023/09/22 00:52:12;;;;;;;10.25;1.65;;;15.70;80.30;;;;;;5075295;28;20028;-82
2023/09/22 00:54:40;;;;;;;6.60;1.27;;;15.90;79.50;;;;;;5075149;28;20020;-83
2023/09/22 00:57:09;;;;;;;8.75;1.38;;;16.00;77.60;;;;;;5074756;28;20044;-82
2023/09/22 00:59:36;;;;;;;6.68;1.30;;;16.20;76.80;;;;;;5075174;28;20025;-82
2023/09/22 01:02:04;;;;;;;8.35;1.00;;;16.40;76.10;;;;;;5074956;28;20113;-80
2023/09/22 01:04:31;;;;;;;8.43;1.60;;;16.50;75.90;;;;;;5074998;28;20119;-82
2023/09/22 01:06:59;;;;;;;5.95;1.30;;;16.60;73.70;;;;;;5073896;28;20387;-81
2023/09/22 01:09:26;;;;;;;8.82;1.42;;;16.70;73.10;;;;;;5075018;28;20024;-79
2023/09/22 01:11:53;;;;;;;8.88;1.25;;;16.80;72.10;;;;;;5074777;28;20416;-78
2023/09/22 01:14:21;;;;;;;5.10;1.25;;;17.00;70.80;;;;;;5074669;28;20037;-81
2023/09/22 01:16:51;;;;;;;5.57;1.33;;;17.00;69.80;;;;;;5073278;28;20112;-81
2023/09/22 01:19:19;;;;;;;6.45;1.67;;;17.20;71.40;;;;;;5074758;28;20031;-82
2023/09/22 01:21:48;;;;;;;8.20;1.10;;;17.20;69.90;;;;;;5074823;28;20020;-79
2023/09/22 01:24:15;;;;;;;5.80;1.27;;;17.40;69.80;;;;;;5074607;28;20082;-79
2023/09/22 01:26:42;;;;;;;8.35;1.73;;;17.50;69.00;;;;;;5074367;28;20485;-79
2023/09/22 01:29:10;;;;;;;5.70;1.40;;;17.60;68.50;;;;;;5074213;28;20074;-80
2023/09/22 01:31:38;;;;;;;8.32;1.92;;;17.70;67.10;;;;;;5073007;28;20463;-82
2023/09/22 01:34:08;;;;;;;11.82;2.13;;;17.80;67.10;;;;;;5073472;28;20429;-81
2023/09/22 01:36:35;;;;;;;5.07;1.05;;;17.80;66.30;;;;;;5074176;28;20123;-81
2023/09/22 01:39:04;;;;;;;6.88;1.20;;;17.90;66.40;;;;;;5074080;28;20063;-80
2023/09/22 01:41:35;;;;;;;6.90;1.35;;;18.00;64.10;;;;;;5074041;28;20498;-78
2023/09/22 01:44:02;;;;;;;9.35;1.52;;;18.10;62.60;;;;;;5074119;28;20025;-78
2023/09/22 01:46:30;;;;;;;6.68;1.35;;;18.20;63.20;;;;;;5074033;28;20107;-80
2023/09/22 01:48:57;;;;;;;5.60;1.30;;;18.20;62.90;;;;;;5073714;28;20154;-81
2023/09/22 01:51:25;;;;;;;6.47;1.33;;;18.00;62.80;;;;;;5073963;28;20132;-79
2023/09/22 01:53:55;;;;;;;7.85;1.45;;;18.00;63.30;;;;;;5073990;28;20084;-79
2023/09/22 01:56:22;;;;;;;6.35;1.83;;;18.00;64.10;;;;;;5073905;28;20017;-79
2023/09/22 01:58:50;;;;;;;4.10;1.10;;;18.00;63.70;;;;;;5073893;28;20108;-78
2023/09/22 02:01:17;;;;;;;11.70;1.40;;;18.10;63.60;;;;;;5073651;28;20077;-79
2023/09/22 02:03:45;;;;;;;6.50;1.30;;;18.20;63.30;;;;;;5073861;28;20039;-78
2023/09/22 02:06:13;;;;;;;7.35;1.20;;;18.20;63.60;;;;;;5072495;28;20028;-81
2023/09/22 02:08:40;;;;;;;7.32;1.45;;;18.20;62.90;;;;;;5073842;28;20540;-81
2023/09/22 02:11:10;;;;;;;5.65;1.48;;;18.20;62.80;;;;;;5073284;28;20051;-82
2023/09/22 02:13:38;;;;;;;7.00;1.30;;;18.10;62.00;;;;;;5072263;28;20454;-82
2023/09/22 02:16:05;;;;;;;10.15;2.55;;;18.10;62.80;;;;;;5073582;28;20028;-82
2023/09/22 02:18:33;;;;;;;10.80;1.77;;;18.10;63.70;;;;;;5072420;28;20030;-82
2023/09/22 02:21:00;;;;;;;9.45;1.48;;;18.00;63.10;;;;;;5073232;28;20119;-78
2023/09/22 02:23:28;;;;;;;9.15;1.55;;;18.00;63.70;;;;;;5073171;28;20107;-78
2023/09/22 02:25:55;;;;;;;6.05;1.25;;;18.00;63.50;;;;;;5073118;28;20056;-79
2023/09/22 02:28:23;;;;;;;5.07;1.20;;;17.90;63.10;;;;;;5073079;28;20023;-79
2023/09/22 02:30:50;;;;;;;4.13;1.17;;;17.90;63.50;;;;;;5073178;28;20025;-78
2023/09/22 02:33:17;;;;;;;5.88;1.20;;;17.90;64.40;;;;;;5073343;28;20108;-78
2023/09/22 02:35:45;;;;;;;7.20;1.00;;;17.90;65.20;;;;;;5073077;28;20426;-79
2023/09/22 02:38:12;;;;;;;4.20;1.15;;;17.90;65.00;;;;;;5073137;28;20063;-78
2023/09/22 02:40:39;;;;;;;5.28;1.30;;;17.90;64.80;;;;;;5072969;28;20021;-82
2023/09/22 02:43:07;;;;;;;3.85;1.20;;;17.80;64.00;;;;;;5071506;28;20402;-79
2023/09/22 02:45:40;;;;;;;4.05;0.98;;;17.70;63.20;;;;;;5072872;28;20037;-78
2023/09/22 02:48:09;;;;;;;5.53;1.40;;;17.70;63.70;;;;;;5072916;28;20375;-83
2023/09/22 02:50:38;;;;;;;7.70;1.30;;;17.70;62.00;;;;;;5072760;28;20038;-80
2023/09/22 02:53:05;;;;;;;7.57;1.58;;;17.70;62.00;;;;;;5072842;28;20095;-79
2023/09/22 02:55:37;;;;;;;6.82;1.05;;;17.80;62.30;;;;;;5073097;28;20478;-78
2023/09/22 02:58:05;;;;;;;5.38;1.10;;;17.80;61.00;;;;;;5073050;28;20388;-78
2023/09/22 03:00:33;;;;;;;9.15;1.88;;;17.90;60.70;;;;;;5072973;28;20530;-78
2023/09/22 03:03:01;;;;;;;3.97;0.85;;;17.90;60.70;;;;;;5072815;28;20024;-78
2023/09/22 03:05:33;;;;;;;6.80;0.98;;;18.00;60.70;;;;;;5072618;28;20044;-79
2023/09/22 03:08:00;;;;;;;7.72;1.25;;;18.00;60.80;;;;;;5072627;28;20104;-79
2023/09/22 03:10:29;;;;;;;6.82;1.35;;;18.00;61.10;;;;;;5072510;28;20036;-78
2023/09/22 03:12:56;;;;;;;7.05;1.40;;;18.00;59.70;;;;;;5072399;28;20085;-82
2023/09/22 03:15:24;;;;;;;9.25;1.35;;;17.90;58.50;;;;;;5072640;28;20070;-79
2023/09/22 03:17:52;;;;;;;4.38;1.23;;;17.80;57.50;;;;;;5072426;28;20508;-79
2023/09/22 03:20:20;;;;;;;8.23;1.20;;;17.80;57.90;;;;;;5072508;28;20100;-79
2023/09/22 03:22:48;;;;;;;5.32;1.00;;;17.80;59.30;;;;;;5072757;28;20029;-82
2023/09/22 03:25:17;;;;;;;6.13;1.35;;;17.80;58.10;;;;;;5071992;28;20039;-78
2023/09/22 03:27:44;;;;;;;7.15;1.30;;;17.80;57.20;;;;;;5072652;28;20478;-77
2023/09/22 03:30:12;;;;;;;3.65;0.90;;;17.80;57.80;;;;;;5073506;28;20352;-77
2023/09/22 03:32:40;;;;;;;3.60;1.10;;;17.80;57.60;;;;;;5076010;28;20463;-83
2023/09/22 03:35:08;;;;;;;11.18;1.45;;;17.80;57.30;;;;;;5074984;28;20044;-79
2023/09/22 03:37:36;;;;;;;3.35;0.75;;;17.80;56.20;;;;;;5071644;28;20040;-77
2023/09/22 03:40:13;;;;;;;4.10;0.75;;;17.80;55.00;;;;;;5075505;28;20056;-77
2023/09/22 03:42:44;;;;;;;4.00;0.80;;;17.80;55.10;;;;;;5074674;28;20021;-83
2023/09/22 03:45:12;;;;;;;4.38;1.10;;;17.80;55.30;;;;;;5073619;28;20064;-78
2023/09/22 03:47:42;;;;;;;5.45;1.10;;;17.90;54.40;;;;;;5075424;28;20538;-86
2023/09/22 03:50:10;;;;;;;5.63;1.10;;;18.00;54.90;;;;;;5075596;28;20028;-77
2023/09/22 03:52:38;;;;;;;6.90;1.00;;;18.00;55.10;;;;;;5075792;28;20130;-77
2023/09/22 03:55:06;;;;;;;8.57;1.13;;;18.00;55.90;;;;;;5074875;28;20028;-76
2023/09/22 03:57:33;;;;;;;11.15;1.30;;;18.20;56.40;;;;;;5074789;28;20027;-77
2023/09/22 04:00:01;;;;;;;8.75;1.10;;;18.30;55.80;;;;;;5074245;28;20450;-77
2023/09/22 04:02:29;;;;;;;8.90;1.23;;;18.30;55.60;;;;;;5075104;28;20054;-77
2023/09/22 04:04:57;;;;;;;4.95;1.08;;;18.30;56.50;;;;;;5074736;28;20422;-76
2023/09/22 04:07:24;;;;;;;10.10;1.58;;;18.30;57.20;;;;;;5075219;28;20059;-77
2023/09/22 04:09:52;;;;;;;8.73;1.10;;;18.40;57.10;;;;;;5073857;28;20078;-76
2023/09/22 04:12:19;;;;;;;6.55;1.10;;;18.50;57.00;;;;;;5074640;28;20013;-79
2023/09/22 04:14:47;;;;;;;5.93;1.17;;;18.70;56.10;;;;;;5075330;28;20378;-77
2023/09/22 04:17:15;;;;;;;5.45;1.30;;;18.70;54.40;;;;;;5075072;28;20028;-77
2023/09/22 04:19:43;;;;;;;6.80;1.00;;;18.90;55.20;;;;;;5075733;28;20468;-78
2023/09/22 04:22:12;;;;;;;5.85;1.38;;;19.00;55.40;;;;;;5075539;28;20446;-78
2023/09/22 04:24:47;;;;;;;7.57;1.30;;;18.90;55.60;;;;;;5075639;28;20068;-78
2023/09/22 04:27:15;;;;;;;9.67;1.37;;;18.80;55.40;;;;;;5075368;28;20021;-77
2023/09/22 04:29:42;;;;;;;9.15;1.20;;;18.80;56.50;;;;;;5074260;28;20071;-77
2023/09/22 04:32:10;;;;;;;8.05;1.40;;;18.80;56.10;;;;;;5075491;28;20048;-77
2023/09/22 04:34:38;;;;;;;8.90;1.27;;;18.80;56.20;;;;;;5075428;28;20028;-77
2023/09/22 04:37:05;;;;;;;4.82;1.00;;;18.90;56.10;;;;;;5074958;28;20053;-78
2023/09/22 04:39:33;;;;;;;7.20;1.25;;;19.10;55.90;;;;;;5075124;28;20483;-78
2023/09/22 04:42:02;;;;;;;15.63;1.45;;;19.20;54.80;;;;;;5075252;28;20020;-77
2023/09/22 04:44:30;;;;;;;6.50;1.52;;;19.30;54.50;;;;;;5075128;28;20073;-76
2023/09/22 04:46:57;;;;;;;6.75;1.30;;;19.30;55.10;;;;;;5075091;28;20039;-79
2023/09/22 04:49:25;;;;;;;6.55;1.38;;;19.40;53.30;;;;;;5075078;28;20021;-74
2023/09/22 04:51:52;;;;;;;4.65;1.13;;;19.50;54.20;;;;;;5074002;28;20106;-75
2023/09/22 04:54:19;;;;;;;6.20;1.10;;;19.50;53.30;;;;;;5075043;28;20498;-74
2023/09/22 04:56:47;;;;;;;8.35;1.35;;;19.50;53.30;;;;;;5074736;28;20472;-78
2023/09/22 04:59:17;;;;;;;10.55;1.17;;;19.50;53.10;;;;;;5074913;28;20028;-76
2023/09/22 05:01:46;;;;;;;5.78;1.10;;;19.50;52.50;;;;;;5075168;28;20382;-76
2023/09/22 05:04:13;;;;;;;6.82;1.67;;;19.30;52.40;;;;;;5075183;28;20382;-88
2023/09/22 05:06:43;;;;;;;8.38;1.30;;;19.20;53.00;;;;;;5075413;28;20108;-78
2023/09/22 05:09:11;;;;;;;5.63;1.50;;;19.20;53.80;;;;;;5073402;28;20021;-78
2023/09/22 05:11:38;;;;;;;4.30;1.00;;;19.20;53.90;;;;;;5074702;28;20093;-77
2023/09/22 05:14:06;;;;;;;2.50;0.70;;;19.30;53.80;;;;;;5074840;28;20017;-77
2023/09/22 05:16:33;;;;;;;4.75;1.00;;;19.30;53.30;;;;;;5074638;28;20021;-77
2023/09/22 05:19:01;;;;;;;4.00;0.90;;;19.40;52.40;;;;;;5074633;28;20032;-77
2023/09/22 05:21:28;;;;;;;5.97;1.15;;;19.40;51.90;;;;;;5074797;28;20021;-78
2023/09/22 05:23:56;;;;;;;4.32;0.90;;;19.40;50.20;;;;;;5074339;28;20082;-79
2023/09/22 05:26:25;;;;;;;5.57;1.02;;;19.30;49.80;;;;;;5075597;28;20039;-78
2023/09/22 05:28:52;;;;;;;3.85;0.98;;;19.30;50.10;;;;;;5077507;28;20467;-79
2023/09/22 05:31:20;;;;;;;6.47;0.82;;;19.30;51.70;;;;;;5076938;28;20036;-77
2023/09/22 05:33:47;;;;;;;3.97;1.00;;;19.20;51.40;;;;;;5076593;28;20039;-76
2023/09/22 05:36:15;;;;;;;5.50;1.20;;;19.20;51.50;;;;;;5075590;28;20045;-76
2023/09/22 05:38:42;;;;;;;6.75;1.25;;;19.10;51.30;;;;;;5075026;28;20115;-76
2023/09/22 05:41:12;;;;;;;4.63;1.65;;;19.00;50.30;;;;;;5074392;28;20021;-76
2023/09/22 05:43:40;;;;;;;5.60;1.30;;;19.00;50.00;;;;;;5074346;28;20028;-81
2023/09/22 05:46:08;;;;;;;4.70;1.30;;;18.90;50.90;;;;;;5074027;28;20082;-80
2023/09/22 05:48:36;;;;;;;11.40;1.35;;;18.90;51.20;;;;;;5073894;28;20357;-77
2023/09/22 05:51:03;;;;;;;7.00;1.35;;;18.70;51.80;;;;;;5071617;28;20044;-79
2023/09/22 05:53:31;;;;;;;7.88;1.20;;;18.60;52.20;;;;;;5073623;28;20040;-76
2023/09/22 05:56:06;;;;;;;7.55;1.20;;;18.50;52.40;;;;;;5074228;28;20026;-77
2023/09/22 05:58:38;;;;;;;5.53;1.37;;;18.30;52.00;;;;;;5074070;28;20344;-79
2023/09/22 06:01:07;;;;;;;4.75;1.35;;;18.30;52.60;;;;;;5073580;28;20834;-78
2023/09/22 06:03:39;;;;;;;5.43;1.10;;;18.30;53.50;;;;;;5073441;28;20030;-77
2023/09/22 06:06:11;;;;;;;4.72;1.00;;;18.20;52.80;;;;;;5073473;28;20032;-77
2023/09/22 06:08:39;;;;;;;5.93;0.90;;;18.20;52.50;;;;;;5073307;28;20022;-76
2023/09/22 06:11:08;;;;;;;18.42;10.15;;;18.10;53.00;;;;;;5072041;28;20024;-78
2023/09/22 06:13:35;;;;;;;4.90;1.20;;;18.10;53.60;;;;;;5073042;28;20123;-78
2023/09/22 06:16:04;;;;;;;6.15;1.50;;;18.00;53.40;;;;;;5073501;28;20020;-77
2023/09/22 06:18:32;;;;;;;3.75;1.13;;;18.00;54.30;;;;;;5073386;28;20498;-78
2023/09/22 06:21:01;;;;;;;6.05;2.80;;;18.00;53.80;;;;;;5073125;28;20418;-78
2023/09/22 06:23:29;;;;;;;7.38;2.95;;;18.20;54.20;;;;;;5073078;28;20027;-78
2023/09/22 06:26:02;;;;;;;10.40;4.95;;;18.20;53.70;;;;;;5073478;28;20033;-78
2023/09/22 06:28:30;;;;;;;7.20;3.97;;;18.20;53.60;;;;;;5073467;28;20073;-78
2023/09/22 06:31:05;;;;;;;5.78;1.40;;;18.20;53.90;;;;;;5072940;28;20025;-80
2023/09/22 06:33:33;;;;;;;5.65;1.02;;;18.10;52.70;;;;;;5073127;28;20024;-78
2023/09/22 06:36:04;;;;;;;3.72;1.40;;;18.00;52.40;;;;;;5072911;28;20090;-80
2023/09/22 06:38:36;;;;;;;4.20;1.83;;;18.00;53.30;;;;;;5071451;28;20028;-77
2023/09/22 06:41:04;;;;;;;3.80;1.52;;;18.00;53.10;;;;;;5072790;28;20029;-76
2023/09/22 06:43:36;;;;;;;4.70;0.80;;;18.00;53.10;;;;;;5072985;28;20025;-76
2023/09/22 06:46:05;;;;;;;6.18;0.82;;;17.90;52.80;;;;;;5072739;28;20040;-76
2023/09/22 06:48:32;;;;;;;8.60;1.13;;;17.80;52.50;;;;;;5073070;28;20029;-77
2023/09/22 06:51:00;;;;;;;4.18;1.52;;;17.80;53.00;;;;;;5072648;28;20028;-79
2023/09/22 06:53:29;;;;;;;5.55;1.35;;;17.80;54.10;;;;;;5072637;28;20032;-78
2023/09/22 06:56:08;;;;;;;4.88;1.40;;;17.70;53.90;;;;;;5072844;28;20360;-78
2023/09/22 06:58:37;;;;;;;7.05;1.33;;;17.70;53.50;;;;;;5072687;28;20048;-78
2023/09/22 07:01:12;;;;;;;3.35;1.17;;;17.60;53.20;;;;;;5072740;28;20366;-81
2023/09/22 07:03:46;;;;;;;5.97;1.35;;;17.60;53.80;;;;;;5072784;28;20021;-79
2023/09/22 07:06:18;;;;;;;6.47;1.15;;;17.50;53.10;;;;;;5072044;28;20486;-80
2023/09/22 07:08:48;;;;;;;3.38;0.77;;;17.50;53.80;;;;;;5072636;28;20017;-80
2023/09/22 07:11:18;;;;;;;4.78;1.17;;;17.40;54.00;;;;;;5072383;28;20025;-78
2023/09/22 07:13:45;;;;;;;3.42;0.70;;;17.30;54.30;;;;;;5072585;28;20158;-78
2023/09/22 07:16:12;;;;;;;4.32;0.60;;;17.30;54.50;;;;;;5071247;28;20107;-78
2023/09/22 07:18:40;;;;;;;5.43;1.00;;;17.20;54.50;;;;;;5070816;28;20031;-79
2023/09/22 07:21:11;;;;;;;4.65;1.80;;;17.20;55.00;;;;;;5068863;28;20024;-77
2023/09/22 07:23:38;;;;;;;5.47;1.17;;;17.20;56.60;;;;;;5070722;28;20028;-78
2023/09/22 07:26:11;;;;;;;6.18;1.15;;;17.20;56.50;;;;;;5071326;28;20024;-77
2023/09/22 07:28:39;;;;;;;6.32;1.02;;;17.10;56.50;;;;;;5071773;28;20394;-78
2023/09/22 07:31:20;;;;;;;3.40;1.23;;;17.10;56.20;;;;;;5071261;28;20025;-78
2023/09/22 07:33:48;;;;;;;6.88;1.20;;;17.00;56.20;;;;;;5071799;28;20028;-79
2023/09/22 07:36:16;;;;;;;3.30;1.55;;;17.00;56.10;;;;;;5072323;28;20036;-78
2023/09/22 07:38:44;;;;;;;3.47;1.33;;;16.90;56.70;;;;;;5054511;28;20021;-78
2023/09/22 07:41:11;;;;;;;6.75;1.63;;;16.90;56.80;;;;;;5072693;28;20020;-80
2023/09/22 07:43:39;;;;;;;6.00;1.48;;;16.90;56.60;;;;;;5071386;28;20138;-81
2023/09/22 07:46:07;;;;;;;5.57;1.13;;;16.90;57.20;;;;;;5072916;28;20111;-78
2023/09/22 07:48:36;;;;;;;3.83;1.40;;;16.80;56.90;;;;;;5072686;28;20082;-79
2023/09/22 07:51:04;;;;;;;7.75;1.80;;;16.80;56.90;;;;;;5072424;28;20048;-78
2023/09/22 07:53:33;;;;;;;6.63;1.50;;;16.70;56.30;;;;;;5072611;28;20024;-79
2023/09/22 07:56:00;;;;;;;5.82;1.30;;;16.70;56.80;;;;;;5072648;28;20120;-82
2023/09/22 07:58:29;;;;;;;5.20;1.05;;;16.60;57.40;;;;;;5072372;28;20027;-78
2023/09/22 08:00:58;;;;;;;3.28;2.28;;;16.70;57.30;;;;;;5072221;28;20063;-79
2023/09/22 08:03:26;;;;;;;3.85;1.55;;;16.60;58.60;;;;;;5072687;28;20483;-79
2023/09/22 08:05:53;;;;;;;4.35;1.10;;;16.60;57.40;;;;;;5072319;28;20120;-79
2023/09/22 08:08:21;;;;;;;5.22;1.00;;;16.50;57.40;;;;;;5072287;28;20078;-82
2023/09/22 08:10:49;;;;;;;4.93;1.20;;;16.60;57.10;;;;;;5072303;28;20025;-79
2023/09/22 08:13:17;;;;;;;8.95;1.45;;;16.50;57.20;;;;;;5072211;28;20052;-80
2023/09/22 08:15:44;;;;;;;3.80;1.13;;;16.50;57.10;;;;;;5072556;28;20024;-85
2023/09/22 08:18:11;;;;;;;5.35;3.20;;;16.50;57.00;;;;;;5075478;28;20031;-78
2023/09/22 08:20:39;;;;;;;4.68;1.45;;;16.50;58.30;;;;;;5077020;28;20020;-79
2023/09/22 08:23:13;;;;;;;5.82;2.30;;;16.50;58.80;;;;;;5075785;28;20024;-77
2023/09/22 08:25:43;;;;;;;5.80;1.52;;;16.40;58.00;;;;;;5079635;28;20060;-79
2023/09/22 08:28:14;;;;;;;5.40;1.70;;;16.50;58.60;;;;;;5077274;28;20025;-84
2023/09/22 08:30:42;;;;;;;8.63;1.52;;;16.40;58.60;;;;;;5076811;28;20088;-82
2023/09/22 08:33:09;;;;;;;7.50;1.40;;;16.30;57.00;;;;;;5078681;28;20098;-82
2023/09/22 08:35:39;;;;;;;4.25;1.27;;;16.30;58.10;;;;;;5079980;28;20451;-79
2023/09/22 08:38:08;;;;;;;4.85;1.10;;;16.30;58.00;;;;;;5077628;28;20020;-78
2023/09/22 08:40:35;;;;;;;6.72;1.27;;;16.20;58.40;;;;;;5076912;28;20115;-82
2023/09/22 08:43:03;;;;;;;8.95;2.67;;;16.30;58.70;;;;;;5078886;28;20023;-76
2023/09/22 08:45:31;;;;;;;6.63;1.90;;;16.30;59.10;;;;;;5077653;28;20044;-82
2023/09/22 08:47:59;;;;;;;4.65;1.80;;;16.30;58.70;;;;;;5077424;28;20031;-82
2023/09/22 08:50:27;;;;;;;5.07;1.50;;;16.30;58.30;;;;;;5075209;28;20399;-83
2023/09/22 08:52:54;;;;;;;5.22;1.65;;;16.30;58.10;;;;;;5086720;28;20089;-79
2023/09/22 08:55:23;;;;;;;8.88;1.90;;;16.20;57.40;;;;;;5094386;28;20026;-78
2023/09/22 08:57:53;;;;;;;6.88;2.15;;;16.20;57.70;;;;;;5093735;28;20020;-78
2023/09/22 09:00:23;;;;;;;8.73;1.90;;;16.30;58.40;;;;;;5095560;28;20040;-80
2023/09/22 09:02:52;;;;;;;7.22;2.10;;;16.30;58.30;;;;;;5095670;28;20023;-78
2023/09/22 09:05:22;;;;;;;5.30;1.88;;;16.30;59.20;;;;;;5096314;28;20418;-78
2023/09/22 09:07:51;;;;;;;4.20;1.60;;;16.30;59.20;;;;;;5096567;28;20024;-83
2023/09/22 09:10:30;;;;;;;5.68;1.70;;;16.30;59.00;;;;;;5097813;28;20490;-79
2023/09/22 09:13:01;;;;;;;4.05;1.40;;;16.30;58.70;;;;;;5098388;28;20027;-84
2023/09/22 09:15:49;;;;;;;5.88;1.60;;;16.30;58.60;;;;;;5096734;28;20155;-78
2023/09/22 09:18:22;;;;;;;5.07;1.42;;;16.30;57.60;;;;;;5096362;28;20069;-79
2023/09/22 09:21:09;;;;;;;2.45;1.80;;;16.30;59.20;;;;;;5097122;28;20031;-77
2023/09/22 09:23:37;;;;;;;3.92;1.40;;;16.30;60.70;;;;;;5097665;28;20028;-78
2023/09/22 09:26:05;;;;;;;6.20;1.50;;;16.30;60.00;;;;;;5098012;28;20084;-78
2023/09/22 09:28:32;;;;;;;4.60;1.60;;;16.30;60.70;;;;;;5095870;28;20021;-77
2023/09/22 09:31:00;;;;;;;5.25;1.30;;;16.30;59.80;;;;;;5095338;28;20479;-82
2023/09/22 09:33:31;;;;;;;5.85;1.20;;;16.30;60.50;;;;;;5094580;28;20028;-78
2023/09/22 09:35:59;;;;;;;4.10;1.33;;;16.20;60.20;;;;;;5094701;28;20040;-83
2023/09/22 09:38:41;;;;;;;6.00;1.17;;;16.20;60.20;;;;;;5094677;28;20028;-81
2023/09/22 09:41:10;;;;;;;3.20;0.90;;;16.20;59.90;;;;;;5094240;28;20024;-80
2023/09/22 09:43:44;;;;;;;6.60;1.38;;;16.20;59.60;;;;;;5094396;28;20030;-79
2023/09/22 09:46:16;;;;;;;3.70;1.10;;;16.20;61.20;;;;;;5094343;28;20028;-78
2023/09/22 09:48:45;;;;;;;3.90;1.10;;;16.20;61.30;;;;;;5094289;28;20029;-84
2023/09/22 09:51:19;;;;;;;3.55;1.23;;;16.20;61.10;;;;;;5094139;28;20027;-79
2023/09/22 09:53:49;;;;;;;6.32;1.50;;;16.20;61.20;;;;;;5094126;28;20027;-79
2023/09/22 09:56:18;;;;;;;3.90;1.40;;;16.10;61.30;;;;;;5094744;28;20491;-80
2023/09/22 09:58:45;;;;;;;6.55;1.60;;;16.00;62.20;;;;;;5094425;28;20055;-81
2023/09/22 10:01:13;;;;;;;5.75;1.30;;;16.10;63.30;;;;;;5093964;28;20139;-80
2023/09/22 10:03:42;;;;;;;6.75;1.40;;;16.10;63.30;;;;;;5094300;28;20591;-84
2023/09/22 10:06:17;;;;;;;4.78;1.58;;;16.10;63.10;;;;;;5094392;28;20430;-79
2023/09/22 10:08:44;;;;;;;5.60;1.63;;;16.10;63.60;;;;;;5094257;28;20027;-81
2023/09/22 10:11:14;;;;;;;3.67;1.50;;;16.00;63.20;;;;;;5093704;28;20032;-79
2023/09/22 10:13:41;;;;;;;4.85;1.27;;;16.10;63.80;;;;;;5095052;28;20020;-82
2023/09/22 10:16:09;;;;;;;5.38;1.80;;;16.00;63.80;;;;;;5095341;28;20378;-80
2023/09/22 10:18:48;;;;;;;9.40;2.00;;;16.00;63.30;;;;;;5095012;28;20021;-78
2023/09/22 10:21:51;;;;;;;7.38;1.85;;;16.00;63.30;;;;;;5075443;28;20468;-78
2023/09/22 10:24:32;;;;;;;7.63;1.70;;;16.00;64.30;;;;;;5056490;28;20049;-84
2023/09/22 10:27:07;;;;;;;6.20;1.85;;;16.00;64.20;;;;;;5063995;28;20043;-78
2023/09/22 10:29:39;;;;;;;5.93;1.73;;;15.90;63.50;;;;;;5060764;28;20051;-85
2023/09/22 10:32:23;;;;;;;6.32;1.52;;;15.80;64.10;;;;;;5071612;28;20111;-80
2023/09/22 10:35:07;;;;;;;3.50;1.55;;;15.70;64.00;;;;;;5076048;28;20025;-80
2023/09/22 10:37:35;;;;;;;8.35;1.90;;;15.70;65.00;;;;;;5071856;28;20048;-79
2023/09/22 10:40:11;;;;;;;4.43;1.90;;;15.70;65.20;;;;;;5075679;28;20025;-82
2023/09/22 10:42:52;;;;;;;5.65;1.83;;;15.70;65.20;;;;;;5068211;28;20029;-81
2023/09/22 10:45:29;;;;;;;7.65;2.13;;;15.60;65.10;;;;;;5074624;28;20499;-82
2023/09/22 10:48:00;;;;;;;7.78;1.73;;;15.50;65.50;;;;;;5060764;28;20104;-80
2023/09/22 10:50:33;;;;;;;6.25;1.88;;;15.50;65.90;;;;;;5053496;28;20112;-80
2023/09/22 10:53:05;;;;;;;7.07;1.70;;;15.50;66.20;;;;;;5060823;28;20106;-82
2023/09/22 10:55:41;;;;;;;6.25;2.00;;;15.40;66.00;;;;;;5071526;28;20505;-83
2023/09/22 10:58:16;;;;;;;8.55;2.28;;;15.40;66.00;;;;;;5070599;28;20071;-81
2023/09/22 11:01:08;;;;;;;6.38;2.42;;;15.40;66.70;;;;;;5073498;28;20056;-80
2023/09/22 11:03:35;;;;;;;6.72;2.47;;;15.40;66.10;;;;;;5072823;28;20353;-80
2023/09/22 11:06:06;;;;;;;10.00;2.78;;;15.30;66.40;;;;;;5072818;28;20043;-80
2023/09/22 11:08:34;;;;;;;6.47;2.38;;;15.30;66.60;;;;;;5071767;28;20390;-81
2023/09/22 11:11:04;;;;;;;7.68;2.35;;;15.30;66.70;;;;;;5067936;28;20298;-81
2023/09/22 11:13:31;;;;;;;7.63;2.03;;;15.20;66.90;;;;;;5064338;28;20048;-80
2023/09/22 11:16:02;;;;;;;10.27;2.53;;;15.20;67.40;;;;;;5071601;28;20025;-81
2023/09/22 11:18:32;;;;;;;7.63;2.90;;;15.20;67.20;;;;;;5073067;28;20103;-79
2023/09/22 11:21:05;;;;;;;7.70;2.70;;;15.20;67.10;;;;;;5072418;28;20017;-79
2023/09/22 11:23:38;;;;;;;7.47;3.05;;;15.20;67.10;;;;;;5068830;28;20060;-81
2023/09/22 11:26:09;;;;;;;11.02;2.95;;;15.20;67.30;;;;;;5067817;28;20541;-81
2023/09/22 11:28:43;;;;;;;11.27;2.95;;;15.20;67.50;;;;;;5071912;28;20021;-82
2023/09/22 11:31:16;;;;;;;8.93;2.38;;;15.10;67.70;;;;;;5065985;28;20060;-82
2023/09/22 11:33:45;;;;;;;6.53;2.60;;;15.10;67.70;;;;;;5053962;28;20367;-81
2023/09/22 11:36:13;;;;;;;7.45;2.20;;;15.00;68.00;;;;;;5068811;28;20067;-82
2023/09/22 11:38:43;;;;;;;8.45;2.38;;;15.00;68.00;;;;;;5062787;28;20498;-81
2023/09/22 11:41:11;;;;;;;7.28;2.30;;;15.00;68.00;;;;;;5070289;28;20372;-82
2023/09/22 11:43:43;;;;;;;9.30;2.10;;;15.00;68.10;;;;;;5073913;28;20020;-80
2023/09/22 11:46:15;;;;;;;8.02;2.28;;;15.00;68.20;;;;;;5084083;28;20028;-82
2023/09/22 11:49:04;;;;;;;6.97;2.03;;;14.90;68.00;;;;;;5069460;28;20135;-80
2023/09/22 11:51:51;;;;;;;8.73;2.17;;;14.90;68.20;;;;;;5072714;28;20025;-81
2023/09/22 11:54:23;;;;;;;9.10;2.42;;;14.90;68.70;;;;;;5075062;28;20090;-81
2023/09/22 11:56:54;;;;;;;7.00;2.20;;;15.00;68.40;;;;;;5065452;28;20079;-80
2023/09/22 11:59:26;;;;;;;6.75;2.00;;;14.90;68.30;;;;;;5056094;28;20112;-81
2023/09/22 12:01:54;;;;;;;7.78;2.00;;;14.80;68.30;;;;;;5055892;28;20063;-80
2023/09/22 12:04:24;;;;;;;7.03;1.75;;;14.80;68.50;;;;;;5070649;28;20032;-79
2023/09/22 12:06:52;;;;;;;7.55;1.77;;;14.80;68.70;;;;;;5063526;28;20025;-82
2023/09/22 12:09:20;;;;;;;6.53;1.80;;;14.80;68.80;;;;;;5066485;28;20027;-80
2023/09/22 12:11:48;;;;;;;3.17;1.70;;;14.80;68.80;;;;;;5075869;28;20025;-80
2023/09/22 12:14:16;;;;;;;5.78;2.10;;;14.90;68.90;;;;;;5072718;28;20025;-80
2023/09/22 12:16:43;;;;;;;6.50;1.80;;;14.90;68.90;;;;;;5075796;28;20103;-79
2023/09/22 12:19:11;;;;;;;7.70;2.35;;;14.80;68.50;;;;;;5075418;28;20020;-80
2023/09/22 12:21:38;;;;;;;7.97;2.22;;;14.90;68.80;;;;;;5075457;28;20031;-82
2023/09/22 12:24:06;;;;;;;7.07;2.03;;;14.80;68.70;;;;;;5074294;28;20035;-83
2023/09/22 12:26:33;;;;;;;8.07;1.90;;;14.80;68.90;;;;;;5091342;28;20031;-80
2023/09/22 12:29:04;;;;;;;7.72;2.10;;;14.80;69.20;;;;;;5079247;28;20024;-79
2023/09/22 12:31:31;;;;;;;8.60;1.90;;;14.80;69.10;;;;;;5075658;28;20024;-81
2023/09/22 12:33:59;;;;;;;3.38;1.65;;;14.80;69.30;;;;;;5069053;28;20169;-81
2023/09/22 12:36:27;;;;;;;5.07;1.65;;;14.70;69.20;;;;;;5055044;28;20037;-79
2023/09/22 12:38:54;;;;;;;6.65;1.85;;;14.70;69.60;;;;;;5055058;28;20013;-82
2023/09/22 12:41:22;;;;;;;6.10;2.05;;;14.70;69.50;;;;;;5055177;28;20407;-80
2023/09/22 12:43:50;;;;;;;10.18;2.20;;;14.70;69.50;;;;;;5072083;28;20029;-78
2023/09/22 12:46:17;;;;;;;6.65;2.15;;;14.70;69.40;;;;;;5074766;28;20028;-83
2023/09/22 12:48:45;;;;;;;7.05;1.98;;;14.70;69.50;;;;;;5075197;28;20108;-82
2023/09/22 12:51:12;;;;;;;6.13;1.88;;;14.70;69.60;;;;;;5064353;28;20040;-80
2023/09/22 12:53:41;;;;;;;6.80;2.28;;;14.70;69.90;;;;;;5065927;28;20028;-80
2023/09/22 12:56:08;;;;;;;4.65;1.65;;;14.70;69.70;;;;;;5071936;28;20154;-80